Time;durP1;ratioP1;P1;durP2;ratioP2;P2;SDS_P1;SDS_P2;PMS_P1;PMS_P2;Temp;Humidity;BMP_temperature;BMP_pressure;BME280_temperature;BME280_humidity;BME280_pressure;Samples;Min_cycle;Max_cycle;Signal;HPM_P1;HPM_P2
2022/06/07 00:01:30;;;;;;;3.65;1.60;;;;;;;-148.88;79.24;75521.31;5051856;28;20022;-83
2022/06/07 00:03:56;;;;;;;3.28;1.60;;;;;;;-148.88;79.68;75517.25;5035221;28;20064;-82
2022/06/07 00:06:21;;;;;;;4.57;1.73;;;;;;;-148.88;78.86;75505.06;5035797;28;20040;-81
2022/06/07 00:08:47;;;;;;;3.95;1.85;;;;;;;-148.88;79.87;75513.19;5052749;28;20032;-84
2022/06/07 00:11:12;;;;;;;3.92;1.77;;;;;;;-148.88;80.03;75517.25;5035276;28;20180;-82
2022/06/07 00:13:38;;;;;;;3.17;1.58;;;;;;;-148.88;80.67;75513.19;5036441;28;20037;-83
2022/06/07 00:16:03;;;;;;;3.70;1.83;;;;;;;-148.88;80.03;75505.06;5036138;28;20432;-84
2022/06/07 00:18:29;;;;;;;2.70;1.65;;;;;;;-148.88;79.62;75501.00;5035460;28;20022;-84
2022/06/07 00:20:54;;;;;;;2.67;1.38;;;;;;;-148.88;80.16;75501.00;5038667;28;20021;-85
2022/06/07 00:23:20;;;;;;;2.72;1.50;;;;;;;-148.88;80.18;75505.06;5050584;28;20028;-82
2022/06/07 00:25:49;;;;;;;3.92;1.95;;;;;;;-148.88;80.47;75505.06;5059751;28;20029;-85
2022/06/07 00:28:14;;;;;;;3.13;1.55;;;;;;;-148.88;81.23;75501.00;5059396;28;20029;-85
2022/06/07 00:30:40;;;;;;;3.25;1.65;;;;;;;-148.88;80.92;75505.06;5046754;28;20021;-86
2022/06/07 00:33:06;;;;;;;4.00;1.70;;;;;;;-148.88;81.04;75509.13;5046705;28;20102;-85
2022/06/07 00:35:31;;;;;;;2.70;1.75;;;;;;;-148.88;81.16;75503.03;5058900;28;20021;-84
2022/06/07 00:37:57;;;;;;;2.88;1.65;;;;;;;-148.88;81.58;75517.25;5034876;28;20030;-82
2022/06/07 00:40:23;;;;;;;2.25;1.42;;;;;;;-148.88;82.07;75511.16;5036053;28;20025;-83
2022/06/07 00:42:48;;;;;;;3.53;1.50;;;;;;;-148.88;82.39;75488.81;5035889;28;20071;-83
2022/06/07 00:45:18;;;;;;;3.38;1.67;;;;;;;-148.88;82.67;75503.03;5034701;28;20029;-83
2022/06/07 00:47:43;;;;;;;4.85;1.83;;;;;;;-148.88;83.39;75505.06;5035099;28;20116;-82
2022/06/07 00:50:21;;;;;;;3.35;1.70;;;;;;;-148.88;83.51;75505.06;5035910;28;20112;-83
2022/06/07 00:52:46;;;;;;;3.20;2.10;;;;;;;-148.88;83.38;75507.09;5034725;28;20028;-83
2022/06/07 00:55:12;;;;;;;4.35;2.10;;;;;;;-148.88;84.05;75505.06;5035973;28;20021;-84
2022/06/07 00:57:38;;;;;;;3.55;2.08;;;;;;;-148.88;84.04;75505.06;5037292;28;20065;-84
2022/06/07 01:00:06;;;;;;;3.25;2.15;;;;;;;-148.88;84.94;75519.28;5054757;28;20040;-84
2022/06/07 01:02:32;;;;;;;3.10;2.28;;;;;;;-148.88;84.95;75507.09;5052893;28;20026;-83
2022/06/07 01:04:57;;;;;;;3.20;2.17;;;;;;;-148.88;85.51;75509.13;5050887;28;20078;-82
2022/06/07 01:12:50;;;;;;;5.03;2.70;;;;;;;-148.88;85.29;75505.06;5036654;28;19935;-84
2022/06/07 01:15:15;;;;;;;3.08;2.28;;;;;;;-148.88;85.36;75505.06;5035031;28;20021;-82
2022/06/07 01:17:41;;;;;;;4.95;2.50;;;;;;;-148.88;85.47;75517.25;5033942;28;20025;-82
2022/06/07 01:20:07;;;;;;;4.22;2.40;;;;;;;-148.88;85.47;75517.25;5050625;28;20018;-84
2022/06/07 01:22:33;;;;;;;4.30;2.22;;;;;;;-148.88;85.47;75515.22;5034081;28;20029;-83
2022/06/07 01:24:58;;;;;;;4.25;2.40;;;;;;;-148.88;85.39;75511.16;5033905;28;20021;-81
2022/06/07 01:27:23;;;;;;;5.13;2.25;;;;;;;-148.88;84.30;75505.06;5034010;28;20411;-83
2022/06/07 01:29:49;;;;;;;4.68;2.67;;;;;;;-148.88;84.99;75505.06;5034088;28;20053;-83
2022/06/07 01:32:14;;;;;;;3.75;2.75;;;;;;;-148.88;84.90;75509.13;5035381;28;20022;-83
2022/06/07 01:34:42;;;;;;;7.13;2.80;;;;;;;-148.88;85.29;75509.13;5034176;28;20032;-84
2022/06/07 01:37:09;;;;;;;4.93;2.47;;;;;;;-148.88;85.59;75513.19;5033842;28;20029;-83
2022/06/07 01:42:20;;;;;;;4.68;2.63;;;;;;;-148.88;85.57;75517.25;5035617;28;20032;-83
2022/06/07 01:44:47;;;;;;;3.90;2.63;;;;;;;-148.88;85.79;75517.25;5033695;28;20025;-84
2022/06/07 01:53:56;;;;;;;4.10;2.60;;;;;;;-148.88;86.05;75517.25;5034731;28;20083;-82
2022/06/07 01:56:21;;;;;;;4.65;2.72;;;;;;;-148.88;86.43;75513.19;5034271;28;20022;-82
2022/06/07 01:58:47;;;;;;;5.95;3.33;;;;;;;-148.88;85.90;75509.13;5032983;28;20120;-84
2022/06/07 02:01:12;;;;;;;4.82;2.95;;;;;;;-148.88;86.15;75503.03;5033031;28;20482;-82
2022/06/07 02:03:39;;;;;;;7.03;3.20;;;;;;;-148.88;86.30;75503.03;5049628;28;20487;-83
2022/06/07 02:12:48;;;;;;;6.25;4.03;;;;;;;-148.88;87.03;75492.88;5034462;28;20051;-84
2022/06/07 02:21:56;;;;;;;8.23;4.88;;;;;;;-148.88;87.93;75488.81;5035101;28;20035;-83
2022/06/07 02:24:22;;;;;;;7.35;4.90;;;;;;;-148.88;88.36;75488.81;5033193;28;20111;-84
2022/06/07 02:26:53;;;;;;;8.63;4.70;;;;;;;-148.88;88.14;75482.72;5032923;28;20025;-82
2022/06/07 02:29:25;;;;;;;7.07;4.78;;;;;;;-148.88;88.37;75484.75;5033422;28;20057;-82
2022/06/07 02:31:59;;;;;;;7.95;5.38;;;;;;;-148.88;88.57;75480.69;5032555;28;20052;-83
2022/06/07 02:34:25;;;;;;;9.13;5.65;;;;;;;-148.88;89.27;75476.63;5034030;28;20028;-82
2022/06/07 02:36:55;;;;;;;8.50;5.22;;;;;;;-148.88;89.14;75482.72;5049130;28;20450;-83
2022/06/07 02:39:21;;;;;;;8.95;5.55;;;;;;;-148.88;89.23;75474.59;5050229;28;20075;-84
2022/06/07 02:41:49;;;;;;;10.52;6.10;;;;;;;-148.88;89.14;75464.44;5034044;28;20021;-84
2022/06/07 02:44:14;;;;;;;9.38;5.78;;;;;;;-148.88;89.16;75450.22;5032587;28;20056;-83
2022/06/07 02:46:40;;;;;;;8.63;6.22;;;;;;;-148.88;89.15;75444.13;5032539;28;20083;-83
2022/06/07 02:49:05;;;;;;;9.05;6.03;;;;;;;-148.88;89.69;75452.25;5033848;28;20033;-84
2022/06/07 02:51:30;;;;;;;10.90;6.80;;;;;;;-148.88;89.82;75454.28;5032537;28;20087;-83
2022/06/07 02:53:56;;;;;;;10.43;6.75;;;;;;;-148.88;89.97;75444.13;5033770;28;20061;-84
2022/06/07 02:56:22;;;;;;;10.63;6.47;;;;;;;-148.88;90.38;75440.06;5032664;28;20028;-83
2022/06/07 02:58:47;;;;;;;9.27;6.88;;;;;;;-148.88;90.58;75444.13;5049178;28;20025;-83
2022/06/07 03:01:13;;;;;;;8.90;6.13;;;;;;;-148.88;90.65;75440.06;5033684;28;20441;-83
2022/06/07 03:03:39;;;;;;;8.13;6.15;;;;;;;-148.88;90.37;75440.06;5049322;28;20022;-83
2022/06/07 03:06:04;;;;;;;10.73;6.38;;;;;;;-148.88;90.09;75436.00;5034040;28;20049;-85
2022/06/07 03:08:30;;;;;;;10.23;6.82;;;;;;;-148.88;89.98;75431.94;5049038;28;20463;-82
2022/06/07 03:10:55;;;;;;;11.07;6.55;;;;;;;-148.88;90.05;75427.88;5032954;28;20030;-82
2022/06/07 03:13:21;;;;;;;9.32;6.20;;;;;;;-148.88;90.12;75425.84;5033388;28;20025;-86
2022/06/07 03:15:47;;;;;;;9.77;5.97;;;;;;;-148.88;90.23;75429.91;5033247;28;20020;-87
2022/06/07 03:18:12;;;;;;;9.13;6.05;;;;;;;-148.88;90.26;75429.91;5032000;28;20220;-87
2022/06/07 03:20:38;;;;;;;9.70;5.72;;;;;;;-148.88;90.65;75421.78;5032678;28;20031;-87
2022/06/07 03:23:04;;;;;;;7.35;5.38;;;;;;;-148.88;90.45;75431.94;5033314;28;20061;-88
2022/06/07 03:25:30;;;;;;;8.20;5.63;;;;;;;-148.88;90.18;75417.72;5033695;28;20543;-85
2022/06/07 03:27:55;;;;;;;9.35;5.38;;;;;;;-148.88;90.13;75427.88;5048683;28;20018;-86
2022/06/07 03:30:21;;;;;;;8.18;5.03;;;;;;;-148.88;90.14;75427.88;5034225;28;20031;-85
2022/06/07 03:32:46;;;;;;;7.47;4.82;;;;;;;-148.88;90.86;75423.81;5052763;28;20024;-84
2022/06/07 03:35:13;;;;;;;6.50;4.32;;;;;;;-148.88;89.99;75425.84;5037260;28;20024;-83
2022/06/07 03:37:39;;;;;;;6.97;4.80;;;;;;;-148.88;89.95;75423.81;5037471;28;20037;-84
2022/06/07 03:40:09;;;;;;;7.63;4.95;;;;;;;-148.88;89.48;75423.81;5037143;28;20032;-85
2022/06/07 03:42:35;;;;;;;7.63;4.80;;;;;;;-148.88;89.68;75423.81;5036574;28;20026;-86
2022/06/07 03:45:01;;;;;;;8.35;4.40;;;;;;;-148.88;89.68;75423.81;5035791;28;20070;-87
2022/06/07 03:47:26;;;;;;;7.57;4.50;;;;;;;-148.88;88.91;75415.69;5051943;28;20480;-85
2022/06/07 03:49:52;;;;;;;6.45;4.45;;;;;;;-148.88;88.77;75415.69;5052267;28;20021;-85
2022/06/07 03:52:18;;;;;;;4.85;3.72;;;;;;;-148.88;88.90;75423.81;5035814;28;20021;-86
2022/06/07 03:54:44;;;;;;;6.38;3.80;;;;;;;-148.88;88.99;75419.75;5052298;28;20025;-86
2022/06/07 03:57:18;;;;;;;4.85;3.78;;;;;;;-148.88;88.74;75413.66;5051831;28;20033;-86
2022/06/07 03:59:51;;;;;;;5.45;3.67;;;;;;;-148.88;88.67;75407.56;5035204;28;20048;-86
2022/06/07 04:02:16;;;;;;;5.60;3.72;;;;;;;-148.88;89.02;75411.63;5036328;28;20056;-86
2022/06/07 04:04:41;;;;;;;5.15;4.00;;;;;;;-148.88;89.02;75409.59;5035415;28;20017;-84
2022/06/07 04:09:52;;;;;;;7.30;4.53;;;;;;;-148.88;88.77;75399.44;5025423;28;20116;-85
2022/06/07 04:12:18;;;;;;;6.00;3.88;;;;;;;-148.88;89.47;75399.44;5035024;28;20045;-85
2022/06/07 04:14:45;;;;;;;8.00;4.45;;;;;;;-148.88;89.23;75399.44;5051423;28;20061;-86
2022/06/07 04:17:11;;;;;;;7.85;4.38;;;;;;;-148.88;89.39;75391.31;5034905;28;20029;-85
2022/06/07 04:19:39;;;;;;;8.38;4.85;;;;;;;-148.88;89.51;75383.19;5034994;28;20095;-85
2022/06/07 04:22:05;;;;;;;6.03;4.53;;;;;;;-148.88;89.69;75387.25;5034778;28;20026;-85
2022/06/07 04:24:31;;;;;;;7.60;4.65;;;;;;;-148.88;89.87;75381.16;5035312;28;20031;-86
2022/06/07 04:26:57;;;;;;;6.55;4.18;;;;;;;-148.88;89.53;75379.13;5051164;28;20063;-84
2022/06/07 04:29:24;;;;;;;7.68;4.90;;;;;;;-148.88;89.36;75366.94;5034689;28;20057;-86
2022/06/07 04:31:49;;;;;;;9.75;5.00;;;;;;;-148.88;89.41;75362.88;5051691;28;20025;-83
2022/06/07 04:34:18;;;;;;;6.07;4.55;;;;;;;-148.88;89.58;75354.75;5036104;28;20032;-83
2022/06/07 04:36:44;;;;;;;6.82;4.60;;;;;;;-148.88;89.40;75354.75;5034793;28;20163;-84
2022/06/07 04:39:18;;;;;;;9.05;4.60;;;;;;;-148.88;88.56;75346.63;5051259;28;20045;-85
2022/06/07 04:41:46;;;;;;;8.35;5.18;;;;;;;-148.88;88.67;75342.56;5034102;28;20017;-85
2022/06/07 04:44:11;;;;;;;9.05;4.28;;;;;;;-148.88;88.71;75328.34;5035324;28;20093;-83
2022/06/07 04:46:37;;;;;;;9.60;4.60;;;;;;;-148.88;88.60;75324.28;5034702;28;20120;-87
2022/06/07 04:49:03;;;;;;;6.78;4.47;;;;;;;-148.88;86.77;75299.91;5034891;28;20098;-84
2022/06/07 04:51:31;;;;;;;6.70;3.97;;;;;;;-148.88;86.59;75297.88;5035527;28;20034;-84
2022/06/07 04:53:58;;;;;;;7.15;4.32;;;;;;;-148.88;86.19;75285.69;5035082;28;20090;-85
2022/06/07 04:56:31;;;;;;;7.22;4.10;;;;;;;-148.88;85.37;75279.59;5035043;28;20471;-83
2022/06/07 04:58:58;;;;;;;5.07;3.53;;;;;;;-148.88;84.80;75271.50;5034882;28;20025;-86
2022/06/07 05:01:26;;;;;;;4.78;3.40;;;;;;;-148.88;83.53;75257.28;5051418;28;20022;-86
2022/06/07 05:03:53;;;;;;;6.72;3.25;;;;;;;-148.88;83.08;75249.16;5035303;28;20104;-84
2022/06/07 05:06:26;;;;;;;5.82;3.65;;;;;;;-148.88;82.67;75257.28;5050910;28;20025;-84
2022/06/07 05:08:54;;;;;;;6.93;4.07;;;;;;;-148.88;82.59;75241.03;5034076;28;20058;-86
2022/06/07 05:11:31;;;;;;;7.88;3.30;;;;;;;-148.88;82.50;75241.03;5033977;28;20033;-85
2022/06/07 05:14:02;;;;;;;8.15;3.30;;;;;;;-148.88;82.64;75234.94;5035155;28;20400;-85
2022/06/07 05:16:31;;;;;;;6.22;3.10;;;;;;;-148.88;80.93;75232.91;5050406;28;20112;-86
2022/06/07 05:18:57;;;;;;;6.15;3.53;;;;;;;-148.88;81.04;75247.13;5034279;28;20025;-85
2022/06/07 05:21:24;;;;;;;4.50;2.85;;;;;;;-148.88;80.82;75236.97;5051050;28;20025;-85
2022/06/07 05:23:51;;;;;;;7.05;3.38;;;;;;;-148.88;81.68;75234.94;5033842;28;20029;-88
2022/06/07 05:26:37;;;;;;;5.65;2.97;;;;;;;-148.88;82.01;75222.75;5050008;28;20017;-86
2022/06/07 05:29:03;;;;;;;5.97;3.20;;;;;;;-148.88;81.41;75224.78;5050282;28;20163;-87
2022/06/07 05:31:39;;;;;;;9.50;3.38;;;;;;;-148.88;81.74;75220.72;5034094;28;20056;-88
2022/06/07 05:34:04;;;;;;;4.75;3.28;;;;;;;-148.88;82.11;75228.84;5033672;28;20056;-87
2022/06/07 05:36:30;;;;;;;6.90;3.53;;;;;;;-148.88;80.58;75228.84;5069898;23;20076;-85
2022/06/07 05:38:55;;;;;;;4.90;2.63;;;;;;;-148.88;80.50;75216.66;5014772;28;20048;-83
2022/06/07 05:41:25;;;;;;;11.30;3.22;;;;;;;-148.88;79.70;75220.72;4996611;28;20029;-83
2022/06/07 05:43:50;;;;;;;5.35;3.13;;;;;;;-148.88;79.60;75196.34;5015260;28;20039;-82
2022/06/07 05:46:16;;;;;;;5.90;3.20;;;;;;;-148.88;78.06;75188.22;4996544;28;20117;-81
2022/06/07 05:48:41;;;;;;;5.10;2.72;;;;;;;-148.88;78.55;75165.88;5015134;28;20097;-83
2022/06/07 05:51:07;;;;;;;7.85;3.17;;;;;;;-148.88;78.87;75155.72;5012570;28;20344;-82
2022/06/07 05:53:32;;;;;;;5.75;2.78;;;;;;;-148.88;78.28;75145.56;4995984;28;20032;-82
2022/06/07 05:56:05;;;;;;;8.57;3.28;;;;;;;-148.88;78.10;75143.53;4996125;28;20052;-83
2022/06/07 05:58:30;;;;;;;6.33;2.70;;;;;;;-148.88;75.57;75151.66;5014395;28;20111;-84
2022/06/07 06:00:55;;;;;;;5.47;2.80;;;;;;;-148.88;75.87;75157.75;5014080;28;20061;-83
2022/06/07 06:03:21;;;;;;;5.63;2.72;;;;;;;-148.88;75.78;75171.97;4996291;28;20025;-82
2022/06/07 06:05:47;;;;;;;5.40;2.50;;;;;;;-148.88;75.78;75171.97;4995934;28;20107;-83
2022/06/07 06:11:27;;;;;;;6.63;2.67;;;;;;;-148.88;73.74;75167.91;5013856;28;20093;-83
2022/06/07 06:13:53;;;;;;;7.22;2.67;;;;;;;-148.88;72.48;75147.59;4997789;28;20050;-83
2022/06/07 06:16:21;;;;;;;6.93;2.47;;;;;;;-148.88;71.60;75135.41;4995805;28;20079;-84
2022/06/07 06:18:48;;;;;;;9.77;2.58;;;;;;;-148.88;70.59;75129.31;4996047;28;20026;-83
2022/06/07 06:21:14;;;;;;;7.10;2.53;;;;;;;-148.88;68.78;75139.47;5013389;28;20034;-83
2022/06/07 06:23:40;;;;;;;5.22;2.25;;;;;;;-148.88;70.10;75131.34;5013947;28;20036;-84
2022/06/07 06:26:09;;;;;;;3.88;2.20;;;;;;;-148.88;69.58;75131.34;4995481;28;20161;-83
2022/06/07 06:28:35;;;;;;;4.93;2.30;;;;;;;-148.88;69.71;75127.28;5013229;28;20032;-83
2022/06/07 06:31:02;;;;;;;6.07;2.38;;;;;;;-148.88;70.18;75153.69;5013033;28;20065;-82
2022/06/07 06:33:27;;;;;;;3.42;2.40;;;;;;;-148.88;71.29;75190.25;5012991;28;20022;-83
2022/06/07 06:35:54;;;;;;;6.65;2.42;;;;;;;-148.88;73.23;75204.47;4995473;28;20040;-83
2022/06/07 06:38:21;;;;;;;7.80;2.53;;;;;;;-148.88;75.65;75216.66;5013488;28;20115;-82
2022/06/07 06:40:47;;;;;;;8.50;3.00;;;;;;;-148.88;76.92;75228.84;5013217;28;20083;-83
2022/06/07 06:43:15;;;;;;;8.27;3.00;;;;;;;-148.88;78.62;75232.91;5012801;28;20030;-82
2022/06/07 06:45:41;;;;;;;7.00;2.80;;;;;;;-148.88;79.34;75249.16;5012792;28;20026;-83
2022/06/07 06:48:08;;;;;;;7.15;2.90;;;;;;;-148.88;77.88;75251.19;5013081;28;20069;-82
2022/06/07 06:50:35;;;;;;;5.97;2.97;;;;;;;-148.88;77.68;75259.31;4996666;28;20022;-83
2022/06/07 06:53:00;;;;;;;6.53;2.60;;;;;;;-148.88;78.19;75251.19;5013226;28;20030;-84
2022/06/07 06:55:25;;;;;;;7.75;2.67;;;;;;;-148.88;77.16;75241.03;5013173;28;20026;-83
2022/06/07 06:57:51;;;;;;;5.38;2.83;;;;;;;-148.88;76.44;75243.06;5013404;28;20021;-82
2022/06/07 07:00:16;;;;;;;4.53;2.33;;;;;;;-148.88;77.58;75230.88;5013362;28;20022;-82
2022/06/07 07:02:46;;;;;;;7.15;3.00;;;;;;;-148.88;77.93;75232.91;5013586;28;20040;-84
2022/06/07 07:05:14;;;;;;;4.43;2.70;;;;;;;-148.88;77.36;75210.56;5012395;28;20029;-83
2022/06/07 07:07:40;;;;;;;4.43;2.45;;;;;;;-148.88;75.80;75198.38;5017188;28;20030;-83
2022/06/07 07:10:06;;;;;;;5.93;2.63;;;;;;;-148.88;77.01;75188.22;5015840;28;20029;-84
2022/06/07 07:12:33;;;;;;;6.18;2.63;;;;;;;-148.88;76.25;75174.00;4999646;28;20388;-84
2022/06/07 07:14:59;;;;;;;6.22;2.80;;;;;;;-148.88;75.58;75174.00;5000004;28;20018;-83
2022/06/07 07:17:24;;;;;;;6.80;2.58;;;;;;;-148.88;76.63;75143.53;5016784;28;20022;-84
2022/06/07 07:19:49;;;;;;;7.47;2.50;;;;;;;-148.88;75.90;75121.19;5016860;28;20033;-84
2022/06/07 07:22:16;;;;;;;8.55;3.03;;;;;;;-148.88;73.14;75121.19;5016660;28;20026;-83
2022/06/07 07:24:42;;;;;;;8.18;2.60;;;;;;;-148.88;73.56;75115.09;4999266;28;20492;-84
2022/06/07 07:27:07;;;;;;;6.97;2.75;;;;;;;-148.88;75.48;75098.84;4998818;28;20033;-84
2022/06/07 07:29:33;;;;;;;5.20;2.67;;;;;;;-148.88;73.22;75096.81;5016755;28;20337;-84
2022/06/07 07:31:58;;;;;;;4.32;2.78;;;;;;;-148.88;73.92;75082.63;5016709;28;20021;-84
2022/06/07 07:34:23;;;;;;;5.50;2.85;;;;;;;-148.88;73.81;75074.50;5016660;28;20056;-84
2022/06/07 07:36:53;;;;;;;7.85;3.33;;;;;;;-148.88;72.83;75109.00;4998740;28;20045;-84
2022/06/07 07:39:18;;;;;;;5.65;2.92;;;;;;;-148.88;73.01;75119.16;5016500;28;20025;-84
2022/06/07 07:41:48;;;;;;;4.10;2.63;;;;;;;-148.88;73.00;75094.81;4998666;28;20390;-83
2022/06/07 07:44:16;;;;;;;5.38;2.75;;;;;;;-148.88;72.79;75076.53;5015050;28;20084;-82
2022/06/07 07:46:43;;;;;;;6.88;2.88;;;;;;;-148.88;72.08;75082.63;5015991;28;20026;-84
2022/06/07 07:49:12;;;;;;;6.00;2.65;;;;;;;-148.88;71.15;75078.56;5015069;28;20022;-84
2022/06/07 07:51:41;;;;;;;7.18;2.88;;;;;;;-148.88;72.04;75074.50;5016826;28;20021;-83
2022/06/07 07:54:10;;;;;;;5.10;2.53;;;;;;;-148.88;68.98;75086.69;5015947;28;20029;-83
2022/06/07 07:56:38;;;;;;;7.70;2.60;;;;;;;-148.88;67.94;75078.56;5015783;28;20033;-83
2022/06/07 07:59:05;;;;;;;5.22;2.10;;;;;;;-148.88;67.88;75058.25;5015908;28;20026;-83
2022/06/07 08:01:30;;;;;;;5.25;2.05;;;;;;;-148.88;66.09;75052.16;5015832;28;20103;-83
2022/06/07 08:03:58;;;;;;;3.63;1.92;;;;;;;-148.88;66.88;75023.72;5016273;28;20116;-82
2022/06/07 08:06:29;;;;;;;5.20;2.10;;;;;;;-148.88;65.00;75007.47;5015845;28;20026;-83
2022/06/07 08:08:57;;;;;;;5.97;1.83;;;;;;;-148.88;65.13;74993.25;5015949;28;20032;-83
2022/06/07 08:11:26;;;;;;;5.75;2.58;;;;;;;-148.88;63.90;75019.66;4998762;28;20472;-82
2022/06/07 08:13:52;;;;;;;6.10;2.20;;;;;;;-148.88;66.13;75013.56;5015953;28;20029;-83
2022/06/07 08:16:19;;;;;;;6.55;1.98;;;;;;;-148.88;64.83;75029.81;5014243;28;20021;-82
2022/06/07 08:18:45;;;;;;;4.35;1.80;;;;;;;-148.88;64.67;75021.69;5015644;28;20072;-83
2022/06/07 08:21:14;;;;;;;4.82;1.80;;;;;;;-148.88;64.63;75025.75;4998002;28;20021;-83
2022/06/07 08:23:40;;;;;;;4.57;2.00;;;;;;;-148.88;65.88;75009.50;5015467;28;20025;-83
2022/06/07 08:26:08;;;;;;;4.22;1.88;;;;;;;-148.88;63.78;74981.06;5015412;28;20025;-83
2022/06/07 08:28:33;;;;;;;5.18;2.00;;;;;;;-148.88;63.99;74993.25;4998545;28;20432;-82
2022/06/07 08:30:59;;;;;;;7.95;2.40;;;;;;;-148.88;63.16;74995.28;5015268;28;20022;-82
2022/06/07 08:38:56;;;;;;;5.28;2.50;;;;;;;-148.88;66.05;75027.78;5015866;28;20033;-82
2022/06/07 08:41:25;;;;;;;4.55;2.40;;;;;;;-148.88;65.88;75017.63;5015165;28;20025;-83
2022/06/07 08:43:54;;;;;;;4.40;2.33;;;;;;;-148.88;67.01;75013.56;5015306;28;20084;-83
2022/06/07 08:46:29;;;;;;;4.45;2.72;;;;;;;-148.88;66.69;75033.88;5015242;28;20018;-82
2022/06/07 08:48:54;;;;;;;8.43;2.80;;;;;;;-148.88;66.83;75021.69;5015874;28;20030;-83
2022/06/07 08:51:26;;;;;;;3.90;2.55;;;;;;;-148.88;67.36;74999.34;5016279;28;20107;-82
2022/06/07 08:53:55;;;;;;;4.40;2.83;;;;;;;-148.88;67.98;74983.09;5016099;28;20022;-83
2022/06/07 08:56:25;;;;;;;7.20;3.42;;;;;;;-148.88;65.18;74948.56;4998076;28;20036;-84
2022/06/07 08:58:52;;;;;;;6.07;3.17;;;;;;;-148.88;65.73;74946.53;5016202;28;20064;-83
2022/06/07 09:01:27;;;;;;;8.52;3.75;;;;;;;-148.88;65.23;74956.69;4998980;28;20026;-86
2022/06/07 09:04:17;;;;;;;7.28;3.72;;;;;;;-148.88;64.84;74901.88;5016826;28;20033;-82
2022/06/07 09:07:10;;;;;;;8.95;3.53;;;;;;;-148.88;65.98;74885.63;5016761;28;20025;-82
2022/06/07 09:12:24;;;;;;;7.40;4.25;;;;;;;-148.88;66.58;74940.47;5016205;28;20110;-82
2022/06/07 09:15:14;;;;;;;6.28;3.97;;;;;;;-148.88;66.51;74932.34;5015916;28;20026;-82
2022/06/07 09:17:45;;;;;;;8.10;4.70;;;;;;;-148.88;66.96;74924.22;5015101;28;20381;-83
2022/06/07 09:20:18;;;;;;;9.05;4.38;;;;;;;-148.88;67.69;74907.97;5015572;28;20022;-83
2022/06/07 09:23:15;;;;;;;9.13;5.65;;;;;;;-148.88;67.62;74881.56;5015097;28;20396;-84
2022/06/07 09:25:48;;;;;;;6.35;4.50;;;;;;;-148.88;68.38;74883.59;5009113;28;20129;-83
2022/06/07 09:28:29;;;;;;;8.87;5.10;;;;;;;-148.88;66.28;74903.91;5014405;28;20065;-85
2022/06/07 09:31:11;;;;;;;8.30;5.00;;;;;;;-148.88;67.16;74887.66;5014942;28;20025;-83
2022/06/07 09:33:51;;;;;;;7.95;4.47;;;;;;;-148.88;67.06;74863.28;5014986;28;20031;-83
2022/06/07 09:36:25;;;;;;;8.75;4.80;;;;;;;-148.88;68.26;74828.75;4998321;28;20104;-83
2022/06/07 09:39:24;;;;;;;6.25;4.50;;;;;;;-148.88;65.30;74806.44;5014415;28;20113;-83
2022/06/07 09:41:57;;;;;;;9.65;5.03;;;;;;;-148.88;65.08;74802.38;5014216;28;20034;-84
2022/06/07 09:44:31;;;;;;;6.28;4.95;;;;;;;-148.88;65.99;74832.81;5014408;28;20444;-83
2022/06/07 09:47:12;;;;;;;12.95;5.35;;;;;;;-148.88;67.31;74812.53;5014229;28;20038;-83
2022/06/07 09:49:45;;;;;;;8.38;5.20;;;;;;;-148.88;67.37;74838.91;5014329;28;20060;-83
2022/06/07 09:52:20;;;;;;;6.35;5.13;;;;;;;-148.88;68.42;74855.16;4997087;28;20030;-84
2022/06/07 09:54:49;;;;;;;8.20;5.10;;;;;;;-148.88;70.27;74830.78;5014565;28;20026;-82
2022/06/07 09:57:35;;;;;;;8.38;5.43;;;;;;;-148.88;68.68;74818.59;5014444;28;20021;-83
2022/06/07 10:03:25;;;;;;;8.80;5.43;;;;;;;-148.88;68.73;74871.41;5014492;28;20056;-82
2022/06/07 10:06:03;;;;;;;9.27;5.45;;;;;;;-148.88;69.56;74851.09;5013794;28;20037;-82
2022/06/07 10:08:31;;;;;;;8.85;5.53;;;;;;;-148.88;69.37;74847.03;5013640;28;20033;-83
2022/06/07 10:11:04;;;;;;;7.15;5.00;;;;;;;-148.88;67.85;74830.78;5013891;28;20373;-83
2022/06/07 10:13:35;;;;;;;8.05;5.40;;;;;;;-148.88;68.62;74832.81;5013629;28;20037;-85
2022/06/07 10:16:31;;;;;;;9.77;5.60;;;;;;;-148.88;67.63;74804.41;4996797;28;20061;-83
2022/06/07 10:19:17;;;;;;;9.93;5.22;;;;;;;-148.88;68.63;74810.50;4989030;28;20456;-84
2022/06/07 10:22:15;;;;;;;10.05;5.30;;;;;;;-148.88;67.83;74822.66;5013112;28;20038;-83
2022/06/07 10:24:46;;;;;;;7.90;4.80;;;;;;;-148.88;66.45;74810.50;5013511;28;20433;-85
2022/06/07 10:27:23;;;;;;;7.95;5.57;;;;;;;-148.88;66.13;74814.53;5013411;28;20404;-84
2022/06/07 10:30:02;;;;;;;11.07;4.97;;;;;;;-148.88;65.75;74814.53;5013791;28;20021;-83
2022/06/07 10:32:47;;;;;;;8.38;4.75;;;;;;;-148.88;66.11;74806.44;4995605;28;20026;-83
2022/06/07 10:35:39;;;;;;;7.15;4.70;;;;;;;-148.88;65.22;74802.38;5013624;28;20044;-85
2022/06/07 10:38:43;;;;;;;5.28;4.15;;;;;;;-148.88;65.85;74771.91;5013235;28;20519;-84
2022/06/07 10:41:28;;;;;;;7.15;4.13;;;;;;;-148.88;64.13;74786.13;5009373;28;20038;-84
2022/06/07 10:44:27;;;;;;;8.10;4.40;;;;;;;-148.88;64.13;74769.88;5013672;28;20442;-87
2022/06/07 10:46:53;;;;;;;6.40;3.90;;;;;;;-148.88;63.85;74749.56;5010582;28;20042;-83
2022/06/07 10:49:50;;;;;;;9.57;3.85;;;;;;;-148.88;62.08;74743.47;5013837;28;20032;-84
2022/06/07 10:52:22;;;;;;;4.70;3.90;;;;;;;-148.88;62.27;74753.63;4963567;28;20157;-83
2022/06/07 10:55:05;;;;;;;6.57;4.25;;;;;;;-148.88;63.01;74771.91;5013406;28;20054;-84
2022/06/07 10:57:40;;;;;;;;;;;;;;;-148.88;63.53;74782.06;4995924;28;20069;-83
2022/06/07 11:00:43;;;;;;;7.53;3.97;;;;;;;-148.88;64.46;74788.16;4995483;28;19913;-84
2022/06/07 11:03:26;;;;;;;7.47;4.60;;;;;;;-148.88;63.93;74749.56;5013288;28;20014;-84
2022/06/07 11:11:42;;;;;;;8.10;3.72;;;;;;;-148.88;61.34;74570.88;5013752;28;20160;-83
2022/06/07 11:14:26;;;;;;;7.97;4.38;;;;;;;-148.88;60.86;74554.63;5013398;28;20034;-84
2022/06/07 11:17:18;;;;;;;6.90;3.90;;;;;;;-148.88;58.88;74554.63;5013749;28;20029;-83
2022/06/07 11:19:43;;;;;;;6.68;3.58;;;;;;;-148.88;59.19;74621.63;5013149;28;20026;-83
2022/06/07 11:22:17;;;;;;;6.80;3.63;;;;;;;-148.88;59.02;74623.66;5013241;28;20026;-83
2022/06/07 11:24:59;;;;;;;;;;;;;;;-148.88;58.96;74619.59;4995952;28;20022;-83
2022/06/07 11:27:26;;;;;;;7.20;3.83;;;;;;;-148.88;58.54;74544.47;5013523;28;20008;-82
2022/06/07 11:30:22;;;;;;;7.82;3.65;;;;;;;-148.88;57.61;74591.19;5013744;28;20029;-83
2022/06/07 11:32:51;;;;;;;6.10;4.05;;;;;;;-148.88;57.60;74548.53;5013501;28;20464;-84
2022/06/07 11:35:42;;;;;;;7.88;4.13;;;;;;;-148.88;58.70;74574.94;4995253;28;20388;-82
2022/06/07 11:38:35;;;;;;;5.85;3.60;;;;;;;-148.88;59.96;74583.06;5025380;23;20088;-77
2022/06/07 11:41:37;;;;;;;6.18;3.72;;;;;;;-148.88;59.63;74615.53;5009788;28;20038;-77
2022/06/07 11:44:10;;;;;;;4.63;3.72;;;;;;;-148.88;60.71;74641.94;4995459;28;20025;-77
2022/06/07 11:46:35;;;;;;;7.22;4.40;;;;;;;-148.88;60.14;74688.66;5013031;28;20363;-77
2022/06/07 11:49:21;;;;;;;7.53;4.17;;;;;;;-148.88;60.96;74700.84;5012886;28;20108;-77
2022/06/07 11:52:12;;;;;;;7.07;3.65;;;;;;;-148.88;62.16;74725.19;4986852;28;20263;-77
2022/06/07 11:54:44;;;;;;;8.70;4.25;;;;;;;-148.88;65.33;74761.75;5014809;28;20506;-77
2022/06/07 11:57:23;;;;;;;10.85;6.35;;;;;;;-148.88;71.89;74798.31;5001338;28;20113;-77
2022/06/07 11:59:52;;;;;;;11.18;7.72;;;;;;;-148.88;73.41;74830.78;4999422;28;20124;-77
2022/06/07 12:02:17;;;;;;;9.80;7.18;;;;;;;-148.88;76.07;74802.38;5016519;28;20251;-77
2022/06/07 12:04:43;;;;;;;13.13;8.93;;;;;;;-148.88;75.35;74778.00;5016737;28;20025;-77
2022/06/07 12:07:32;;;;;;;12.32;8.20;;;;;;;-148.88;76.36;74753.63;5016320;28;20057;-77
2022/06/07 12:10:11;;;;;;;11.05;7.97;;;;;;;-148.88;74.67;74778.00;4998871;28;20025;-77
2022/06/07 12:12:38;;;;;;;12.70;8.55;;;;;;;-148.88;74.41;74790.19;5016419;28;20053;-77
2022/06/07 12:15:17;;;;;;;14.25;8.93;;;;;;;-148.88;74.30;74798.31;5016626;28;20479;-77
2022/06/07 12:18:01;;;;;;;10.65;7.97;;;;;;;-148.88;73.64;74786.13;4998734;28;20021;-77
2022/06/07 12:20:33;;;;;;;11.75;8.32;;;;;;;-148.88;73.44;74798.31;5016140;28;20491;-77
2022/06/07 12:23:17;;;;;;;11.43;7.47;;;;;;;-148.88;71.71;74790.19;4998513;28;20116;-77